sensor_id;sensor_type;location;lat;lon;timestamp;P1;durP1;ratioP1;P2;durP2;ratioP2
49826;SDS011;35715;51.570;6.036;2022-08-19T00:00:25;20.95;;;19.25;;
49826;SDS011;35715;51.570;6.036;2022-08-19T00:02:52;19.85;;;18.08;;
49826;SDS011;35715;51.570;6.036;2022-08-19T00:05:17;19.10;;;17.13;;
49826;SDS011;35715;51.570;6.036;2022-08-19T00:07:45;19.77;;;17.80;;
49826;SDS011;35715;51.570;6.036;2022-08-19T00:10:11;16.00;;;14.70;;
49826;SDS011;35715;51.570;6.036;2022-08-19T00:12:39;16.35;;;15.00;;
49826;SDS011;35715;51.570;6.036;2022-08-19T00:15:05;16.45;;;14.70;;
49826;SDS011;35715;51.570;6.036;2022-08-19T00:17:43;16.67;;;15.13;;
49826;SDS011;35715;51.570;6.036;2022-08-19T00:20:10;16.80;;;15.27;;
49826;SDS011;35715;51.570;6.036;2022-08-19T00:22:38;17.98;;;16.13;;
49826;SDS011;35715;51.570;6.036;2022-08-19T00:25:06;17.23;;;15.68;;
49826;SDS011;35715;51.570;6.036;2022-08-19T00:27:33;19.73;;;17.83;;
49826;SDS011;35715;51.570;6.036;2022-08-19T00:29:59;21.17;;;18.38;;
49826;SDS011;35715;51.570;6.036;2022-08-19T00:32:25;21.50;;;17.75;;
49826;SDS011;35715;51.570;6.036;2022-08-19T00:34:51;21.38;;;19.48;;
49826;SDS011;35715;51.570;6.036;2022-08-19T00:37:18;24.75;;;22.38;;
49826;SDS011;35715;51.570;6.036;2022-08-19T00:39:44;28.92;;;21.15;;
49826;SDS011;35715;51.570;6.036;2022-08-19T00:42:10;20.75;;;18.95;;
49826;SDS011;35715;51.570;6.036;2022-08-19T00:44:35;19.00;;;17.27;;
49826;SDS011;35715;51.570;6.036;2022-08-19T00:47:01;18.67;;;17.10;;
49826;SDS011;35715;51.570;6.036;2022-08-19T00:49:34;18.92;;;16.95;;
49826;SDS011;35715;51.570;6.036;2022-08-19T00:52:03;21.33;;;19.42;;
49826;SDS011;35715;51.570;6.036;2022-08-19T00:54:31;18.10;;;16.40;;
49826;SDS011;35715;51.570;6.036;2022-08-19T00:56:58;20.33;;;18.45;;
49826;SDS011;35715;51.570;6.036;2022-08-19T00:59:26;19.27;;;17.67;;
49826;SDS011;35715;51.570;6.036;2022-08-19T01:01:53;20.60;;;18.60;;
49826;SDS011;35715;51.570;6.036;2022-08-19T01:04:18;24.35;;;19.45;;
49826;SDS011;35715;51.570;6.036;2022-08-19T01:06:44;21.20;;;18.95;;
49826;SDS011;35715;51.570;6.036;2022-08-19T01:09:09;19.23;;;17.58;;
49826;SDS011;35715;51.570;6.036;2022-08-19T01:11:36;19.70;;;17.75;;
49826;SDS011;35715;51.570;6.036;2022-08-19T01:14:05;19.27;;;17.65;;
49826;SDS011;35715;51.570;6.036;2022-08-19T01:19:16;23.33;;;18.63;;
49826;SDS011;35715;51.570;6.036;2022-08-19T01:21:49;19.88;;;18.27;;
49826;SDS011;35715;51.570;6.036;2022-08-19T01:24:20;18.15;;;16.23;;
49826;SDS011;35715;51.570;6.036;2022-08-19T01:29:15;22.17;;;20.27;;
49826;SDS011;35715;51.570;6.036;2022-08-19T01:31:40;22.40;;;20.20;;
49826;SDS011;35715;51.570;6.036;2022-08-19T01:34:07;22.58;;;20.20;;
49826;SDS011;35715;51.570;6.036;2022-08-19T01:36:34;21.70;;;19.67;;
49826;SDS011;35715;51.570;6.036;2022-08-19T01:39:10;21.58;;;19.55;;
49826;SDS011;35715;51.570;6.036;2022-08-19T01:41:39;20.45;;;18.17;;
49826;SDS011;35715;51.570;6.036;2022-08-19T01:44:05;19.20;;;17.50;;
49826;SDS011;35715;51.570;6.036;2022-08-19T01:46:47;22.88;;;19.98;;
49826;SDS011;35715;51.570;6.036;2022-08-19T01:49:13;19.45;;;17.75;;
49826;SDS011;35715;51.570;6.036;2022-08-19T01:51:39;19.40;;;17.70;;
49826;SDS011;35715;51.570;6.036;2022-08-19T01:54:05;21.15;;;19.25;;
49826;SDS011;35715;51.570;6.036;2022-08-19T01:59:00;23.10;;;21.05;;
49826;SDS011;35715;51.570;6.036;2022-08-19T02:01:28;23.83;;;21.73;;
49826;SDS011;35715;51.570;6.036;2022-08-19T02:03:56;22.83;;;20.67;;
49826;SDS011;35715;51.570;6.036;2022-08-19T02:08:52;21.70;;;19.90;;
49826;SDS011;35715;51.570;6.036;2022-08-19T02:11:20;23.30;;;21.17;;
49826;SDS011;35715;51.570;6.036;2022-08-19T02:13:47;24.80;;;22.70;;
49826;SDS011;35715;51.570;6.036;2022-08-19T02:16:14;25.73;;;23.42;;
49826;SDS011;35715;51.570;6.036;2022-08-19T02:18:41;26.33;;;23.70;;
49826;SDS011;35715;51.570;6.036;2022-08-19T02:21:06;24.40;;;22.17;;
49826;SDS011;35715;51.570;6.036;2022-08-19T02:23:32;26.10;;;23.77;;
49826;SDS011;35715;51.570;6.036;2022-08-19T02:25:57;23.92;;;21.70;;
49826;SDS011;35715;51.570;6.036;2022-08-19T02:28:25;26.20;;;23.90;;
49826;SDS011;35715;51.570;6.036;2022-08-19T02:30:51;24.77;;;22.52;;
49826;SDS011;35715;51.570;6.036;2022-08-19T02:33:16;29.05;;;26.50;;
49826;SDS011;35715;51.570;6.036;2022-08-19T02:35:42;31.95;;;28.95;;
49826;SDS011;35715;51.570;6.036;2022-08-19T02:38:09;29.15;;;26.08;;
49826;SDS011;35715;51.570;6.036;2022-08-19T02:40:53;30.10;;;27.42;;
49826;SDS011;35715;51.570;6.036;2022-08-19T02:43:24;31.02;;;27.95;;
49826;SDS011;35715;51.570;6.036;2022-08-19T02:45:51;34.10;;;30.13;;
49826;SDS011;35715;51.570;6.036;2022-08-19T02:48:17;32.95;;;29.50;;
49826;SDS011;35715;51.570;6.036;2022-08-19T02:50:45;31.73;;;28.60;;
49826;SDS011;35715;51.570;6.036;2022-08-19T02:53:12;30.88;;;28.00;;
49826;SDS011;35715;51.570;6.036;2022-08-19T02:55:45;30.40;;;27.50;;
49826;SDS011;35715;51.570;6.036;2022-08-19T03:00:41;32.30;;;29.08;;
49826;SDS011;35715;51.570;6.036;2022-08-19T03:03:08;33.22;;;30.27;;
49826;SDS011;35715;51.570;6.036;2022-08-19T03:05:35;30.98;;;27.95;;
49826;SDS011;35715;51.570;6.036;2022-08-19T03:08:02;32.28;;;29.17;;
49826;SDS011;35715;51.570;6.036;2022-08-19T03:10:28;34.97;;;31.65;;
49826;SDS011;35715;51.570;6.036;2022-08-19T03:12:53;32.88;;;29.73;;
49826;SDS011;35715;51.570;6.036;2022-08-19T03:15:19;30.60;;;27.92;;
49826;SDS011;35715;51.570;6.036;2022-08-19T03:20:12;36.13;;;32.50;;
49826;SDS011;35715;51.570;6.036;2022-08-19T03:22:38;33.00;;;30.05;;
49826;SDS011;35715;51.570;6.036;2022-08-19T03:25:03;35.78;;;32.25;;
49826;SDS011;35715;51.570;6.036;2022-08-19T03:27:30;36.05;;;32.63;;
49826;SDS011;35715;51.570;6.036;2022-08-19T03:29:55;37.55;;;33.65;;
49826;SDS011;35715;51.570;6.036;2022-08-19T03:32:21;32.70;;;29.30;;
49826;SDS011;35715;51.570;6.036;2022-08-19T03:34:47;35.50;;;32.05;;
49826;SDS011;35715;51.570;6.036;2022-08-19T03:37:15;35.05;;;31.30;;
49826;SDS011;35715;51.570;6.036;2022-08-19T03:39:40;33.42;;;29.98;;
49826;SDS011;35715;51.570;6.036;2022-08-19T03:42:07;34.65;;;31.40;;
49826;SDS011;35715;51.570;6.036;2022-08-19T03:44:33;37.80;;;33.45;;
49826;SDS011;35715;51.570;6.036;2022-08-19T03:47:18;37.83;;;34.35;;
49826;SDS011;35715;51.570;6.036;2022-08-19T03:49:44;38.72;;;35.13;;
49826;SDS011;35715;51.570;6.036;2022-08-19T03:52:10;41.25;;;37.00;;
49826;SDS011;35715;51.570;6.036;2022-08-19T03:54:35;40.22;;;36.33;;
49826;SDS011;35715;51.570;6.036;2022-08-19T03:57:13;39.22;;;35.25;;
49826;SDS011;35715;51.570;6.036;2022-08-19T03:59:38;43.17;;;38.63;;
49826;SDS011;35715;51.570;6.036;2022-08-19T04:02:06;39.42;;;35.65;;
49826;SDS011;35715;51.570;6.036;2022-08-19T04:07:01;40.80;;;36.45;;
49826;SDS011;35715;51.570;6.036;2022-08-19T04:09:27;40.13;;;36.25;;
49826;SDS011;35715;51.570;6.036;2022-08-19T04:11:53;44.38;;;39.85;;
49826;SDS011;35715;51.570;6.036;2022-08-19T04:14:23;41.85;;;37.85;;
49826;SDS011;35715;51.570;6.036;2022-08-19T04:16:50;40.55;;;36.42;;
49826;SDS011;35715;51.570;6.036;2022-08-19T04:19:16;39.60;;;35.60;;
49826;SDS011;35715;51.570;6.036;2022-08-19T04:21:44;42.92;;;38.75;;
49826;SDS011;35715;51.570;6.036;2022-08-19T04:24:16;41.20;;;37.38;;
49826;SDS011;35715;51.570;6.036;2022-08-19T04:26:43;42.40;;;38.03;;
49826;SDS011;35715;51.570;6.036;2022-08-19T04:29:11;38.92;;;34.97;;
49826;SDS011;35715;51.570;6.036;2022-08-19T04:31:39;37.28;;;33.67;;
49826;SDS011;35715;51.570;6.036;2022-08-19T04:34:07;40.90;;;37.05;;
49826;SDS011;35715;51.570;6.036;2022-08-19T04:36:38;40.92;;;36.67;;
49826;SDS011;35715;51.570;6.036;2022-08-19T04:39:10;38.00;;;34.00;;
49826;SDS011;35715;51.570;6.036;2022-08-19T04:41:37;42.22;;;37.80;;
49826;SDS011;35715;51.570;6.036;2022-08-19T04:44:21;40.55;;;36.47;;
49826;SDS011;35715;51.570;6.036;2022-08-19T04:46:56;41.08;;;36.72;;
49826;SDS011;35715;51.570;6.036;2022-08-19T04:49:22;41.83;;;37.50;;
49826;SDS011;35715;51.570;6.036;2022-08-19T04:51:49;42.22;;;37.75;;
49826;SDS011;35715;51.570;6.036;2022-08-19T04:54:19;45.25;;;40.55;;
49826;SDS011;35715;51.570;6.036;2022-08-19T04:56:48;42.35;;;37.80;;
49826;SDS011;35715;51.570;6.036;2022-08-19T04:59:15;45.88;;;40.05;;
49826;SDS011;35715;51.570;6.036;2022-08-19T05:01:42;40.72;;;36.45;;
49826;SDS011;35715;51.570;6.036;2022-08-19T05:04:07;40.47;;;36.38;;
49826;SDS011;35715;51.570;6.036;2022-08-19T05:09:04;44.95;;;39.83;;
49826;SDS011;35715;51.570;6.036;2022-08-19T05:11:31;40.83;;;36.53;;
49826;SDS011;35715;51.570;6.036;2022-08-19T05:13:59;41.05;;;36.70;;
49826;SDS011;35715;51.570;6.036;2022-08-19T05:18:54;43.30;;;37.83;;
49826;SDS011;35715;51.570;6.036;2022-08-19T05:21:39;43.38;;;38.90;;
49826;SDS011;35715;51.570;6.036;2022-08-19T05:24:24;40.30;;;35.90;;
49826;SDS011;35715;51.570;6.036;2022-08-19T05:26:52;44.90;;;40.38;;
49826;SDS011;35715;51.570;6.036;2022-08-19T05:29:21;42.95;;;38.33;;
49826;SDS011;35715;51.570;6.036;2022-08-19T05:31:48;42.47;;;37.83;;
49826;SDS011;35715;51.570;6.036;2022-08-19T05:34:17;43.20;;;35.67;;
49826;SDS011;35715;51.570;6.036;2022-08-19T05:36:53;38.95;;;34.83;;
49826;SDS011;35715;51.570;6.036;2022-08-19T05:39:22;42.92;;;38.35;;
49826;SDS011;35715;51.570;6.036;2022-08-19T05:41:51;41.28;;;36.80;;
49826;SDS011;35715;51.570;6.036;2022-08-19T05:44:21;42.22;;;36.65;;
49826;SDS011;35715;51.570;6.036;2022-08-19T05:46:49;47.55;;;38.47;;
49826;SDS011;35715;51.570;6.036;2022-08-19T05:49:18;45.50;;;38.53;;
49826;SDS011;35715;51.570;6.036;2022-08-19T05:51:44;41.17;;;36.80;;
49826;SDS011;35715;51.570;6.036;2022-08-19T05:54:10;42.50;;;38.03;;
49826;SDS011;35715;51.570;6.036;2022-08-19T05:56:40;45.72;;;38.45;;
49826;SDS011;35715;51.570;6.036;2022-08-19T05:59:07;40.83;;;36.65;;
49826;SDS011;35715;51.570;6.036;2022-08-19T06:01:36;41.08;;;35.40;;
49826;SDS011;35715;51.570;6.036;2022-08-19T06:04:03;45.22;;;38.90;;
49826;SDS011;35715;51.570;6.036;2022-08-19T06:06:41;41.38;;;37.03;;
49826;SDS011;35715;51.570;6.036;2022-08-19T06:09:07;44.53;;;39.92;;
49826;SDS011;35715;51.570;6.036;2022-08-19T06:14:09;41.45;;;36.78;;
49826;SDS011;35715;51.570;6.036;2022-08-19T06:16:41;42.67;;;37.95;;
49826;SDS011;35715;51.570;6.036;2022-08-19T06:19:09;49.40;;;42.17;;
49826;SDS011;35715;51.570;6.036;2022-08-19T06:24:06;49.90;;;41.33;;
49826;SDS011;35715;51.570;6.036;2022-08-19T06:26:44;52.92;;;46.25;;
49826;SDS011;35715;51.570;6.036;2022-08-19T06:29:11;54.65;;;44.58;;
49826;SDS011;35715;51.570;6.036;2022-08-19T06:31:41;53.15;;;46.67;;
49826;SDS011;35715;51.570;6.036;2022-08-19T06:34:10;62.50;;;49.60;;
49826;SDS011;35715;51.570;6.036;2022-08-19T06:36:41;60.55;;;50.55;;
49826;SDS011;35715;51.570;6.036;2022-08-19T06:39:13;62.72;;;52.92;;
49826;SDS011;35715;51.570;6.036;2022-08-19T06:41:41;71.18;;;51.15;;
49826;SDS011;35715;51.570;6.036;2022-08-19T06:44:09;66.03;;;52.10;;
49826;SDS011;35715;51.570;6.036;2022-08-19T06:46:36;62.03;;;51.97;;
49826;SDS011;35715;51.570;6.036;2022-08-19T06:49:03;63.67;;;54.50;;
49826;SDS011;35715;51.570;6.036;2022-08-19T06:51:29;60.85;;;50.88;;
49826;SDS011;35715;51.570;6.036;2022-08-19T06:53:56;60.47;;;53.90;;
49826;SDS011;35715;51.570;6.036;2022-08-19T06:56:24;64.25;;;53.55;;
49826;SDS011;35715;51.570;6.036;2022-08-19T06:58:57;63.58;;;52.13;;
49826;SDS011;35715;51.570;6.036;2022-08-19T07:01:23;59.45;;;50.45;;
49826;SDS011;35715;51.570;6.036;2022-08-19T07:03:48;67.25;;;54.10;;
49826;SDS011;35715;51.570;6.036;2022-08-19T07:06:20;59.83;;;53.15;;
49826;SDS011;35715;51.570;6.036;2022-08-19T07:08:46;55.08;;;48.58;;
49826;SDS011;35715;51.570;6.036;2022-08-19T07:11:13;52.35;;;46.85;;
49826;SDS011;35715;51.570;6.036;2022-08-19T07:13:41;56.75;;;49.13;;
49826;SDS011;35715;51.570;6.036;2022-08-19T07:16:09;59.13;;;49.60;;
49826;SDS011;35715;51.570;6.036;2022-08-19T07:18:36;49.80;;;44.50;;
49826;SDS011;35715;51.570;6.036;2022-08-19T07:21:06;54.58;;;45.72;;
49826;SDS011;35715;51.570;6.036;2022-08-19T07:23:36;50.60;;;45.08;;
49826;SDS011;35715;51.570;6.036;2022-08-19T07:26:21;54.65;;;48.22;;
49826;SDS011;35715;51.570;6.036;2022-08-19T07:28:49;55.78;;;44.08;;
49826;SDS011;35715;51.570;6.036;2022-08-19T07:31:16;51.17;;;44.40;;
49826;SDS011;35715;51.570;6.036;2022-08-19T07:33:44;47.42;;;42.30;;
49826;SDS011;35715;51.570;6.036;2022-08-19T07:36:12;56.55;;;45.80;;
49826;SDS011;35715;51.570;6.036;2022-08-19T07:38:41;47.78;;;42.63;;
49826;SDS011;35715;51.570;6.036;2022-08-19T07:41:11;54.00;;;42.77;;
49826;SDS011;35715;51.570;6.036;2022-08-19T07:43:38;52.72;;;44.35;;
49826;SDS011;35715;51.570;6.036;2022-08-19T07:46:04;48.28;;;42.97;;
49826;SDS011;35715;51.570;6.036;2022-08-19T07:48:30;49.17;;;43.55;;
49826;SDS011;35715;51.570;6.036;2022-08-19T07:50:59;51.95;;;46.47;;
49826;SDS011;35715;51.570;6.036;2022-08-19T07:53:27;41.88;;;37.70;;
49826;SDS011;35715;51.570;6.036;2022-08-19T07:55:53;51.20;;;44.45;;
49826;SDS011;35715;51.570;6.036;2022-08-19T07:58:21;42.35;;;37.90;;
49826;SDS011;35715;51.570;6.036;2022-08-19T08:00:48;41.60;;;37.15;;
49826;SDS011;35715;51.570;6.036;2022-08-19T08:03:16;51.38;;;39.38;;
49826;SDS011;35715;51.570;6.036;2022-08-19T08:05:45;44.03;;;39.38;;
49826;SDS011;35715;51.570;6.036;2022-08-19T08:08:30;43.15;;;38.67;;
49826;SDS011;35715;51.570;6.036;2022-08-19T08:11:00;40.53;;;36.60;;
49826;SDS011;35715;51.570;6.036;2022-08-19T08:13:26;37.40;;;33.05;;
49826;SDS011;35715;51.570;6.036;2022-08-19T08:15:52;43.65;;;32.55;;
49826;SDS011;35715;51.570;6.036;2022-08-19T08:18:21;39.58;;;34.63;;
49826;SDS011;35715;51.570;6.036;2022-08-19T08:20:46;35.47;;;31.83;;
49826;SDS011;35715;51.570;6.036;2022-08-19T08:23:12;35.10;;;30.70;;
49826;SDS011;35715;51.570;6.036;2022-08-19T08:25:50;31.23;;;27.92;;
49826;SDS011;35715;51.570;6.036;2022-08-19T08:30:46;27.55;;;24.75;;
49826;SDS011;35715;51.570;6.036;2022-08-19T08:33:14;28.10;;;25.23;;
49826;SDS011;35715;51.570;6.036;2022-08-19T08:35:42;31.33;;;26.55;;
49826;SDS011;35715;51.570;6.036;2022-08-19T08:38:11;35.40;;;26.38;;
49826;SDS011;35715;51.570;6.036;2022-08-19T08:43:26;37.80;;;27.58;;
49826;SDS011;35715;51.570;6.036;2022-08-19T08:46:03;27.52;;;24.73;;
49826;SDS011;35715;51.570;6.036;2022-08-19T08:48:46;29.33;;;26.42;;
49826;SDS011;35715;51.570;6.036;2022-08-19T08:51:19;29.40;;;26.23;;
49826;SDS011;35715;51.570;6.036;2022-08-19T08:53:49;30.25;;;23.50;;
49826;SDS011;35715;51.570;6.036;2022-08-19T08:56:23;22.63;;;20.30;;
49826;SDS011;35715;51.570;6.036;2022-08-19T08:58:51;23.80;;;21.33;;
49826;SDS011;35715;51.570;6.036;2022-08-19T09:01:23;25.23;;;22.58;;
49826;SDS011;35715;51.570;6.036;2022-08-19T09:03:48;23.15;;;21.05;;
49826;SDS011;35715;51.570;6.036;2022-08-19T09:09:05;18.88;;;16.98;;
49826;SDS011;35715;51.570;6.036;2022-08-19T09:16:57;19.45;;;17.45;;
49826;SDS011;35715;51.570;6.036;2022-08-19T09:19:23;18.02;;;16.17;;
49826;SDS011;35715;51.570;6.036;2022-08-19T09:21:48;15.80;;;14.40;;
49826;SDS011;35715;51.570;6.036;2022-08-19T09:24:15;15.32;;;13.52;;
49826;SDS011;35715;51.570;6.036;2022-08-19T09:29:09;14.57;;;13.23;;
49826;SDS011;35715;51.570;6.036;2022-08-19T09:31:35;14.98;;;13.55;;
49826;SDS011;35715;51.570;6.036;2022-08-19T09:34:00;14.18;;;12.68;;
49826;SDS011;35715;51.570;6.036;2022-08-19T09:36:30;14.07;;;12.88;;
49826;SDS011;35715;51.570;6.036;2022-08-19T09:39:01;13.50;;;12.10;;
49826;SDS011;35715;51.570;6.036;2022-08-19T09:41:28;14.10;;;12.73;;
49826;SDS011;35715;51.570;6.036;2022-08-19T09:43:54;13.82;;;12.23;;
49826;SDS011;35715;51.570;6.036;2022-08-19T09:46:24;12.93;;;11.73;;
49826;SDS011;35715;51.570;6.036;2022-08-19T09:48:53;19.83;;;10.88;;
49826;SDS011;35715;51.570;6.036;2022-08-19T09:51:22;15.85;;;11.82;;
49826;SDS011;35715;51.570;6.036;2022-08-19T09:53:49;12.88;;;10.45;;
49826;SDS011;35715;51.570;6.036;2022-08-19T09:56:18;12.20;;;11.05;;
49826;SDS011;35715;51.570;6.036;2022-08-19T09:58:44;15.57;;;12.60;;
49826;SDS011;35715;51.570;6.036;2022-08-19T10:01:15;14.38;;;11.95;;
49826;SDS011;35715;51.570;6.036;2022-08-19T10:03:46;15.13;;;10.30;;
49826;SDS011;35715;51.570;6.036;2022-08-19T10:06:14;12.88;;;10.05;;
49826;SDS011;35715;51.570;6.036;2022-08-19T10:08:40;12.48;;;10.20;;
49826;SDS011;35715;51.570;6.036;2022-08-19T10:11:06;15.48;;;11.63;;
49826;SDS011;35715;51.570;6.036;2022-08-19T10:13:32;20.97;;;11.73;;
49826;SDS011;35715;51.570;6.036;2022-08-19T10:16:11;10.75;;;8.55;;
49826;SDS011;35715;51.570;6.036;2022-08-19T10:18:38;12.02;;;8.65;;
49826;SDS011;35715;51.570;6.036;2022-08-19T10:21:10;8.52;;;7.68;;
49826;SDS011;35715;51.570;6.036;2022-08-19T10:23:38;8.95;;;8.02;;
49826;SDS011;35715;51.570;6.036;2022-08-19T10:28:37;8.40;;;7.32;;
49826;SDS011;35715;51.570;6.036;2022-08-19T10:31:03;8.90;;;8.00;;
49826;SDS011;35715;51.570;6.036;2022-08-19T10:33:33;10.75;;;8.73;;
49826;SDS011;35715;51.570;6.036;2022-08-19T10:36:10;11.65;;;7.63;;
49826;SDS011;35715;51.570;6.036;2022-08-19T10:38:40;20.50;;;7.75;;
49826;SDS011;35715;51.570;6.036;2022-08-19T10:41:16;13.35;;;9.40;;
49826;SDS011;35715;51.570;6.036;2022-08-19T10:43:44;13.25;;;9.93;;
49826;SDS011;35715;51.570;6.036;2022-08-19T10:46:10;13.65;;;9.18;;
49826;SDS011;35715;51.570;6.036;2022-08-19T10:48:38;9.20;;;8.55;;
49826;SDS011;35715;51.570;6.036;2022-08-19T10:51:04;12.48;;;10.32;;
49826;SDS011;35715;51.570;6.036;2022-08-19T10:53:48;9.13;;;8.52;;
49826;SDS011;35715;51.570;6.036;2022-08-19T10:56:15;12.65;;;10.02;;
49826;SDS011;35715;51.570;6.036;2022-08-19T10:58:59;12.98;;;11.38;;
49826;SDS011;35715;51.570;6.036;2022-08-19T11:01:25;13.75;;;11.70;;
49826;SDS011;35715;51.570;6.036;2022-08-19T11:03:51;19.15;;;16.23;;
49826;SDS011;35715;51.570;6.036;2022-08-19T11:06:21;18.92;;;17.13;;
49826;SDS011;35715;51.570;6.036;2022-08-19T11:08:46;19.98;;;18.17;;
49826;SDS011;35715;51.570;6.036;2022-08-19T11:11:12;20.67;;;18.58;;
49826;SDS011;35715;51.570;6.036;2022-08-19T11:13:38;21.05;;;19.10;;
49826;SDS011;35715;51.570;6.036;2022-08-19T11:16:09;20.80;;;18.77;;
49826;SDS011;35715;51.570;6.036;2022-08-19T11:18:36;22.33;;;20.42;;
49826;SDS011;35715;51.570;6.036;2022-08-19T11:21:07;21.17;;;18.92;;
49826;SDS011;35715;51.570;6.036;2022-08-19T11:23:37;23.10;;;19.13;;
49826;SDS011;35715;51.570;6.036;2022-08-19T11:26:03;18.20;;;16.50;;
49826;SDS011;35715;51.570;6.036;2022-08-19T11:28:28;22.63;;;20.42;;
49826;SDS011;35715;51.570;6.036;2022-08-19T11:30:54;18.40;;;16.65;;
49826;SDS011;35715;51.570;6.036;2022-08-19T11:33:19;18.95;;;16.48;;
49826;SDS011;35715;51.570;6.036;2022-08-19T11:35:44;16.67;;;15.07;;
49826;SDS011;35715;51.570;6.036;2022-08-19T11:38:10;18.63;;;16.83;;
49826;SDS011;35715;51.570;6.036;2022-08-19T11:40:36;16.85;;;15.25;;
49826;SDS011;35715;51.570;6.036;2022-08-19T11:43:01;19.52;;;16.20;;
49826;SDS011;35715;51.570;6.036;2022-08-19T11:45:27;16.58;;;14.40;;
49826;SDS011;35715;51.570;6.036;2022-08-19T11:47:54;17.33;;;15.43;;
49826;SDS011;35715;51.570;6.036;2022-08-19T11:50:20;18.40;;;14.63;;
49826;SDS011;35715;51.570;6.036;2022-08-19T11:52:46;16.00;;;14.50;;
49826;SDS011;35715;51.570;6.036;2022-08-19T11:55:12;14.73;;;13.15;;
49826;SDS011;35715;51.570;6.036;2022-08-19T11:57:41;14.60;;;13.35;;
49826;SDS011;35715;51.570;6.036;2022-08-19T12:00:08;17.48;;;14.93;;
49826;SDS011;35715;51.570;6.036;2022-08-19T12:02:36;14.63;;;13.15;;
49826;SDS011;35715;51.570;6.036;2022-08-19T12:05:01;17.35;;;15.65;;
49826;SDS011;35715;51.570;6.036;2022-08-19T12:07:32;16.05;;;14.48;;
49826;SDS011;35715;51.570;6.036;2022-08-19T12:09:59;17.02;;;15.23;;
49826;SDS011;35715;51.570;6.036;2022-08-19T12:12:25;19.80;;;16.58;;
49826;SDS011;35715;51.570;6.036;2022-08-19T12:14:51;16.73;;;15.02;;
49826;SDS011;35715;51.570;6.036;2022-08-19T12:17:28;21.25;;;19.10;;
49826;SDS011;35715;51.570;6.036;2022-08-19T12:19:55;24.02;;;21.48;;
49826;SDS011;35715;51.570;6.036;2022-08-19T12:22:21;23.30;;;19.02;;
49826;SDS011;35715;51.570;6.036;2022-08-19T12:24:46;20.25;;;17.98;;
49826;SDS011;35715;51.570;6.036;2022-08-19T12:27:14;19.73;;;17.80;;
49826;SDS011;35715;51.570;6.036;2022-08-19T12:29:40;18.98;;;17.02;;
49826;SDS011;35715;51.570;6.036;2022-08-19T12:32:06;20.58;;;18.45;;
49826;SDS011;35715;51.570;6.036;2022-08-19T12:34:32;21.10;;;18.90;;
49826;SDS011;35715;51.570;6.036;2022-08-19T12:37:04;20.60;;;18.45;;
49826;SDS011;35715;51.570;6.036;2022-08-19T12:39:33;19.58;;;17.55;;
49826;SDS011;35715;51.570;6.036;2022-08-19T12:42:00;21.58;;;17.33;;
49826;SDS011;35715;51.570;6.036;2022-08-19T12:44:26;19.33;;;16.92;;
49826;SDS011;35715;51.570;6.036;2022-08-19T12:46:53;21.25;;;16.02;;
49826;SDS011;35715;51.570;6.036;2022-08-19T12:49:19;27.52;;;18.98;;
49826;SDS011;35715;51.570;6.036;2022-08-19T12:51:44;25.87;;;20.67;;
49826;SDS011;35715;51.570;6.036;2022-08-19T12:54:09;21.27;;;17.95;;
49826;SDS011;35715;51.570;6.036;2022-08-19T12:59:07;20.20;;;18.05;;
49826;SDS011;35715;51.570;6.036;2022-08-19T13:01:33;22.88;;;18.23;;
49826;SDS011;35715;51.570;6.036;2022-08-19T13:03:59;23.77;;;20.27;;
49826;SDS011;35715;51.570;6.036;2022-08-19T13:06:26;20.85;;;18.80;;
49826;SDS011;35715;51.570;6.036;2022-08-19T13:08:51;22.58;;;20.17;;
49826;SDS011;35715;51.570;6.036;2022-08-19T13:11:18;20.73;;;18.65;;
49826;SDS011;35715;51.570;6.036;2022-08-19T13:13:46;21.98;;;19.30;;
49826;SDS011;35715;51.570;6.036;2022-08-19T13:16:13;20.83;;;17.92;;
49826;SDS011;35715;51.570;6.036;2022-08-19T13:18:40;20.58;;;18.45;;
49826;SDS011;35715;51.570;6.036;2022-08-19T13:21:07;22.10;;;19.90;;
49826;SDS011;35715;51.570;6.036;2022-08-19T13:23:34;22.08;;;19.35;;
49826;SDS011;35715;51.570;6.036;2022-08-19T13:26:02;25.58;;;17.48;;
49826;SDS011;35715;51.570;6.036;2022-08-19T13:28:29;21.55;;;19.10;;
49826;SDS011;35715;51.570;6.036;2022-08-19T13:31:16;22.67;;;19.50;;
49826;SDS011;35715;51.570;6.036;2022-08-19T13:34:01;26.27;;;20.20;;
49826;SDS011;35715;51.570;6.036;2022-08-19T13:36:29;23.20;;;20.10;;
49826;SDS011;35715;51.570;6.036;2022-08-19T13:38:54;20.13;;;18.00;;
49826;SDS011;35715;51.570;6.036;2022-08-19T13:41:19;23.33;;;20.55;;
49826;SDS011;35715;51.570;6.036;2022-08-19T13:43:45;23.35;;;19.52;;
49826;SDS011;35715;51.570;6.036;2022-08-19T13:46:12;21.20;;;19.10;;
49826;SDS011;35715;51.570;6.036;2022-08-19T13:48:40;21.45;;;17.30;;
49826;SDS011;35715;51.570;6.036;2022-08-19T13:51:06;21.17;;;18.98;;
49826;SDS011;35715;51.570;6.036;2022-08-19T13:53:35;16.70;;;15.00;;
49826;SDS011;35715;51.570;6.036;2022-08-19T13:56:05;15.15;;;13.63;;
49826;SDS011;35715;51.570;6.036;2022-08-19T13:58:31;16.23;;;14.52;;
49826;SDS011;35715;51.570;6.036;2022-08-19T14:00:56;13.65;;;12.40;;
49826;SDS011;35715;51.570;6.036;2022-08-19T14:03:22;14.85;;;13.32;;
49826;SDS011;35715;51.570;6.036;2022-08-19T14:05:48;16.92;;;13.00;;
49826;SDS011;35715;51.570;6.036;2022-08-19T14:08:22;16.40;;;13.95;;
49826;SDS011;35715;51.570;6.036;2022-08-19T14:10:48;17.50;;;14.50;;
49826;SDS011;35715;51.570;6.036;2022-08-19T14:13:15;16.77;;;13.80;;
49826;SDS011;35715;51.570;6.036;2022-08-19T14:15:42;16.23;;;14.43;;
49826;SDS011;35715;51.570;6.036;2022-08-19T14:18:09;15.18;;;13.60;;
49826;SDS011;35715;51.570;6.036;2022-08-19T14:20:35;16.52;;;13.90;;
49826;SDS011;35715;51.570;6.036;2022-08-19T14:23:00;17.67;;;14.50;;
49826;SDS011;35715;51.570;6.036;2022-08-19T14:25:26;18.83;;;15.98;;
49826;SDS011;35715;51.570;6.036;2022-08-19T14:27:58;35.75;;;17.70;;
49826;SDS011;35715;51.570;6.036;2022-08-19T14:30:27;17.00;;;15.35;;
49826;SDS011;35715;51.570;6.036;2022-08-19T14:35:26;14.80;;;13.02;;
49826;SDS011;35715;51.570;6.036;2022-08-19T14:38:02;16.17;;;14.35;;
49826;SDS011;35715;51.570;6.036;2022-08-19T14:40:30;18.17;;;16.38;;
49826;SDS011;35715;51.570;6.036;2022-08-19T14:42:57;26.35;;;17.63;;
49826;SDS011;35715;51.570;6.036;2022-08-19T14:45:29;19.92;;;17.98;;
49826;SDS011;35715;51.570;6.036;2022-08-19T14:47:57;21.30;;;17.33;;
49826;SDS011;35715;51.570;6.036;2022-08-19T14:50:24;19.20;;;17.27;;
49826;SDS011;35715;51.570;6.036;2022-08-19T14:52:49;20.50;;;17.60;;
49826;SDS011;35715;51.570;6.036;2022-08-19T14:55:22;21.70;;;18.23;;
49826;SDS011;35715;51.570;6.036;2022-08-19T14:57:48;22.33;;;20.20;;
49826;SDS011;35715;51.570;6.036;2022-08-19T15:00:14;20.33;;;18.38;;
49826;SDS011;35715;51.570;6.036;2022-08-19T15:02:40;27.27;;;20.08;;
49826;SDS011;35715;51.570;6.036;2022-08-19T15:05:08;22.77;;;20.20;;
49826;SDS011;35715;51.570;6.036;2022-08-19T15:07:44;25.50;;;23.02;;
49826;SDS011;35715;51.570;6.036;2022-08-19T15:10:10;23.50;;;21.08;;
49826;SDS011;35715;51.570;6.036;2022-08-19T15:12:37;23.95;;;21.45;;
49826;SDS011;35715;51.570;6.036;2022-08-19T15:15:08;20.67;;;18.67;;
49826;SDS011;35715;51.570;6.036;2022-08-19T15:17:45;22.98;;;19.75;;
49826;SDS011;35715;51.570;6.036;2022-08-19T15:20:12;22.27;;;20.17;;